createdAt,value
2023-04-10T00:00:28.935Z,26.30
2023-04-10T00:01:28.922Z,23.40
2023-04-10T00:02:29.157Z,23.00
2023-04-10T00:03:29.054Z,22.20
2023-04-10T00:04:28.986Z,25.80
2023-04-10T00:05:28.905Z,33.70
2023-04-10T00:06:28.900Z,29.50
2023-04-10T00:07:28.874Z,28.30
2023-04-10T00:08:28.879Z,22.70
2023-04-10T00:09:28.842Z,27.10
2023-04-10T00:10:28.825Z,28.10
2023-04-10T00:11:28.825Z,29.90
2023-04-10T00:12:28.819Z,23.00
2023-04-10T00:13:28.811Z,23.90
2023-04-10T00:14:28.789Z,25.90
2023-04-10T00:15:28.853Z,28.50
2023-04-10T00:16:28.792Z,30.20
2023-04-10T00:17:28.801Z,28.10
2023-04-10T00:18:28.771Z,24.30
2023-04-10T00:19:28.828Z,30.40
2023-04-10T00:20:28.730Z,25.00
2023-04-10T00:21:28.710Z,20.80
2023-04-10T00:22:28.711Z,24.20
2023-04-10T00:23:28.708Z,30.60
2023-04-10T00:24:28.707Z,22.40
2023-04-10T00:25:28.699Z,24.10
2023-04-10T00:26:28.621Z,24.80
2023-04-10T00:27:28.655Z,23.40
2023-04-10T00:28:28.654Z,28.70
2023-04-10T00:29:28.673Z,27.80
2023-04-10T00:30:28.631Z,28.00
2023-04-10T00:31:28.608Z,21.90
2023-04-10T00:32:28.604Z,24.80
2023-04-10T00:33:28.595Z,23.40
2023-04-10T00:34:28.579Z,27.20
2023-04-10T00:35:28.595Z,26.40
2023-04-10T00:36:28.578Z,24.10
2023-04-10T00:37:28.536Z,26.10
2023-04-10T00:38:28.559Z,25.10
2023-04-10T00:39:28.536Z,25.40
2023-04-10T00:40:36.701Z,30.80
2023-04-10T00:41:28.519Z,30.40
2023-04-10T00:42:28.487Z,23.80
2023-04-10T00:43:28.491Z,26.70
2023-04-10T00:44:28.468Z,26.00
2023-04-10T00:45:28.478Z,24.40
2023-04-10T00:46:28.460Z,22.20
2023-04-10T00:47:28.486Z,25.60
2023-04-10T00:48:28.415Z,23.90
2023-04-10T00:49:28.436Z,22.70
2023-04-10T00:50:28.412Z,28.70
2023-04-10T00:51:28.387Z,25.20
2023-04-10T00:52:28.380Z,22.50
2023-04-10T00:53:28.380Z,36.10
2023-04-10T00:54:28.349Z,30.30
2023-04-10T00:55:28.367Z,34.90
2023-04-10T00:56:28.375Z,25.70
2023-04-10T00:57:28.355Z,23.80
2023-04-10T00:58:28.305Z,25.40
2023-04-10T00:59:28.304Z,27.50
2023-04-10T01:00:28.317Z,25.60
2023-04-10T01:01:28.394Z,32.80
2023-04-10T01:02:28.358Z,25.10
2023-04-10T01:03:28.404Z,24.70
2023-04-10T01:04:28.411Z,30.50
2023-04-10T01:05:28.249Z,24.60
2023-04-10T01:06:28.248Z,28.40
2023-04-10T01:07:28.309Z,42.00
2023-04-10T01:08:28.217Z,26.00
2023-04-10T01:09:28.226Z,30.40
2023-04-10T01:10:28.256Z,25.10
2023-04-10T01:11:28.175Z,32.80
2023-04-10T01:12:28.163Z,25.70
2023-04-10T01:13:28.217Z,28.30
2023-04-10T01:14:28.122Z,26.50
2023-04-10T01:15:28.165Z,28.20
2023-04-10T01:16:28.210Z,29.00
2023-04-10T01:17:28.193Z,26.40
2023-04-10T01:18:28.092Z,22.20
2023-04-10T01:19:28.148Z,29.80
2023-04-10T01:20:28.071Z,32.20
2023-04-10T01:21:28.081Z,28.10
2023-04-10T01:22:28.131Z,31.60
2023-04-10T01:23:28.066Z,32.80
2023-04-10T01:24:28.037Z,27.10
2023-04-10T01:25:28.058Z,29.80
2023-04-10T01:26:28.000Z,35.00
2023-04-10T01:27:28.000Z,29.50
2023-04-10T01:28:28.065Z,24.90
2023-04-10T01:29:27.980Z,34.50
2023-04-10T01:30:27.969Z,25.20
2023-04-10T01:31:28.018Z,33.70
2023-04-10T01:32:28.011Z,26.40
2023-04-10T01:33:27.973Z,26.70
2023-04-10T01:34:28.051Z,30.00
2023-04-10T01:35:27.934Z,34.20
2023-04-10T01:36:27.945Z,32.90
2023-04-10T01:37:27.936Z,24.80
2023-04-10T01:38:27.898Z,26.90
2023-04-10T01:39:27.898Z,31.40
2023-04-10T01:40:27.923Z,24.80
2023-04-10T01:41:27.863Z,28.60
2023-04-10T01:42:27.832Z,35.00
2023-04-10T01:43:27.849Z,27.50
2023-04-10T01:44:27.833Z,33.80
2023-04-10T01:45:27.820Z,28.50
2023-04-10T01:46:27.868Z,25.60
2023-04-10T01:47:27.815Z,25.60
2023-04-10T01:48:27.781Z,42.30
2023-04-10T01:49:27.822Z,33.40
2023-04-10T01:50:27.750Z,31.20
2023-04-10T01:51:27.750Z,28.10
2023-04-10T01:52:27.771Z,26.50
2023-04-10T01:53:27.729Z,32.20
2023-04-10T01:54:34.232Z,24.60
2023-04-10T01:55:27.715Z,24.70
2023-04-10T01:56:27.713Z,40.70
2023-04-10T01:57:28.271Z,28.70
2023-04-10T01:58:27.677Z,30.70
2023-04-10T01:59:27.678Z,30.50
2023-04-10T02:00:27.701Z,29.20
2023-04-10T02:01:30.224Z,28.50
2023-04-10T02:02:27.791Z,31.10
2023-04-10T02:03:27.878Z,29.90
2023-04-10T02:04:27.793Z,31.80
2023-04-10T02:05:27.601Z,32.40
2023-04-10T02:06:27.604Z,27.50
2023-04-10T02:07:27.612Z,35.90
2023-04-10T02:08:27.576Z,32.80
2023-04-10T02:09:27.559Z,31.40
2023-04-10T02:10:27.553Z,29.00
2023-04-10T02:11:27.626Z,27.30
2023-04-10T02:12:27.596Z,35.60
2023-04-10T02:13:27.543Z,25.80
2023-04-10T02:14:27.498Z,36.40
2023-04-10T02:15:27.557Z,35.60
2023-04-10T02:16:27.617Z,31.80
2023-04-10T02:17:27.553Z,35.70
2023-04-10T02:18:27.553Z,29.60
2023-04-10T02:19:27.470Z,26.70
2023-04-10T02:20:27.433Z,25.40
2023-04-10T02:21:27.471Z,27.40
2023-04-10T02:22:27.426Z,39.00
2023-04-10T02:23:27.429Z,26.30
2023-04-10T02:24:27.418Z,28.30
2023-04-10T02:25:27.393Z,28.30
2023-04-10T02:26:27.375Z,32.10
2023-04-10T02:27:27.433Z,31.40
2023-04-10T02:28:27.339Z,28.40
2023-04-10T02:29:27.354Z,39.10
2023-04-10T02:30:27.291Z,29.50
2023-04-10T02:31:27.379Z,36.00
2023-04-10T02:32:27.358Z,34.60
2023-04-10T02:33:27.350Z,28.70
2023-04-10T02:34:27.280Z,32.00
2023-04-10T02:35:27.288Z,32.30
2023-04-10T02:36:27.285Z,31.40
2023-04-10T02:37:27.281Z,39.90
2023-04-10T02:38:27.236Z,37.30
2023-04-10T02:39:27.288Z,26.00
2023-04-10T02:40:27.211Z,27.90
2023-04-10T02:41:27.206Z,32.10
2023-04-10T02:42:27.252Z,24.10
2023-04-10T02:43:27.194Z,28.90
2023-04-10T02:44:27.183Z,26.40
2023-04-10T02:45:27.183Z,35.10
2023-04-10T02:46:27.207Z,35.90
2023-04-10T02:47:27.229Z,28.50
2023-04-10T02:48:27.124Z,32.90
2023-04-10T02:49:27.124Z,33.20
2023-04-10T02:50:27.105Z,34.00
2023-04-10T02:51:27.109Z,40.10
2023-04-10T02:52:27.096Z,32.20
2023-04-10T02:53:27.082Z,33.20
2023-04-10T02:54:27.077Z,36.50
2023-04-10T02:55:27.091Z,31.00
2023-04-10T02:56:27.041Z,36.50
2023-04-10T02:57:27.045Z,26.10
2023-04-10T02:58:27.040Z,34.30
2023-04-10T02:59:27.022Z,36.80
2023-04-10T03:00:27.018Z,38.60
2023-04-10T03:01:27.030Z,35.30
2023-04-10T03:02:27.171Z,35.30
2023-04-10T03:03:27.177Z,28.80
2023-04-10T03:04:27.019Z,30.50
2023-04-10T03:05:26.958Z,32.40
2023-04-10T03:06:27.066Z,38.30
2023-04-10T03:07:33.436Z,38.10
2023-04-10T03:08:26.920Z,33.80
2023-04-10T03:09:26.920Z,39.20
2023-04-10T03:10:26.890Z,36.50
2023-04-10T03:11:26.882Z,27.60
2023-04-10T03:12:26.898Z,34.70
2023-04-10T03:13:26.889Z,39.20
2023-04-10T03:14:26.853Z,36.30
2023-04-10T03:15:26.836Z,39.40
2023-04-10T03:16:26.851Z,38.30
2023-04-10T03:17:26.885Z,35.10
2023-04-10T03:18:26.816Z,35.50
2023-04-10T03:19:26.805Z,34.90
2023-04-10T03:20:26.818Z,38.30
2023-04-10T03:21:26.772Z,38.90
2023-04-10T03:22:26.770Z,38.50
2023-04-10T03:23:26.770Z,32.70
2023-04-10T03:24:26.758Z,39.50
2023-04-10T03:25:26.754Z,42.10
2023-04-10T03:26:26.751Z,36.60
2023-04-10T03:27:26.723Z,41.50
2023-04-10T03:28:26.698Z,39.40
2023-04-10T03:29:26.736Z,30.50
2023-04-10T03:30:26.681Z,43.90
2023-04-10T03:31:26.755Z,38.20
2023-04-10T03:32:26.670Z,38.40
2023-04-10T03:33:26.666Z,33.60
2023-04-10T03:34:26.662Z,40.60
2023-04-10T03:35:26.657Z,42.90
2023-04-10T03:36:26.619Z,33.60
2023-04-10T03:37:26.594Z,35.40
2023-04-10T03:38:26.672Z,35.10
2023-04-10T03:39:26.609Z,35.10
2023-04-10T03:40:26.570Z,42.80
2023-04-10T03:41:26.581Z,34.10
2023-04-10T03:42:26.552Z,40.30
2023-04-10T03:43:26.543Z,31.30
2023-04-10T03:44:26.524Z,41.90
2023-04-10T03:45:26.518Z,35.50
2023-04-10T03:46:26.552Z,31.60
2023-04-10T03:47:26.535Z,44.60
2023-04-10T03:48:26.495Z,42.80
2023-04-10T03:49:26.462Z,38.40
2023-04-10T03:50:26.471Z,44.10
2023-04-10T03:51:26.458Z,35.90
2023-04-10T03:52:26.446Z,38.90
2023-04-10T03:53:26.438Z,41.00
2023-04-10T03:54:26.475Z,37.20
2023-04-10T03:55:26.425Z,32.00
2023-04-10T03:56:26.393Z,46.30
2023-04-10T03:57:26.427Z,44.10
2023-04-10T03:58:26.380Z,41.20
2023-04-10T03:59:37.342Z,35.00
2023-04-10T04:00:26.404Z,36.30
2023-04-10T04:01:26.339Z,37.40
2023-04-10T04:02:26.540Z,30.70
2023-04-10T04:03:26.483Z,36.00
2023-04-10T04:04:26.431Z,35.20
2023-04-10T04:05:26.295Z,36.00
2023-04-10T04:06:26.334Z,32.60
2023-04-10T04:07:26.273Z,40.80
2023-04-10T04:08:26.289Z,35.40
2023-04-10T04:09:26.261Z,48.20
2023-04-10T04:10:26.268Z,38.40
2023-04-10T04:11:26.234Z,40.10
2023-04-10T04:12:26.256Z,43.50
2023-04-10T04:13:26.204Z,38.80
2023-04-10T04:14:26.208Z,35.50
2023-04-10T04:15:26.274Z,41.80
2023-04-10T04:16:26.152Z,40.00
2023-04-10T04:17:26.202Z,43.30
2023-04-10T04:18:26.147Z,37.10
2023-04-10T04:19:26.104Z,33.30
2023-04-10T04:20:33.238Z,31.30
2023-04-10T04:21:26.073Z,41.90
2023-04-10T04:22:26.748Z,41.50
2023-04-10T04:23:26.058Z,31.80
2023-04-10T04:24:26.048Z,42.70
2023-04-10T04:25:26.032Z,41.60
2023-04-10T04:26:26.036Z,41.20
2023-04-10T04:27:26.012Z,40.40
2023-04-10T04:28:26.724Z,47.10
2023-04-10T04:29:26.001Z,34.20
2023-04-10T04:30:26.005Z,37.10
2023-04-10T04:31:26.000Z,33.20
2023-04-10T04:32:25.984Z,38.50
2023-04-10T04:33:25.965Z,46.80
2023-04-10T04:34:25.953Z,34.70
2023-04-10T04:35:25.971Z,33.20
2023-04-10T04:36:25.944Z,35.70
2023-04-10T04:37:25.927Z,38.60
2023-04-10T04:38:25.905Z,34.20
2023-04-10T04:39:25.896Z,36.50
2023-04-10T04:40:25.906Z,40.50
2023-04-10T04:41:25.867Z,37.30
2023-04-10T04:42:25.887Z,45.30
2023-04-10T04:43:25.841Z,39.20
2023-04-10T04:44:25.845Z,37.10
2023-04-10T04:45:25.874Z,38.30
2023-04-10T04:46:25.918Z,43.00
2023-04-10T04:47:25.917Z,33.30
2023-04-10T04:48:25.813Z,42.70
2023-04-10T04:49:25.789Z,39.80
2023-04-10T04:50:25.811Z,33.70
2023-04-10T04:51:25.751Z,33.80
2023-04-10T04:52:25.762Z,38.60
2023-04-10T04:53:25.754Z,35.80
2023-04-10T04:54:25.789Z,46.90
2023-04-10T04:55:25.710Z,37.50
2023-04-10T04:56:25.720Z,49.90
2023-04-10T04:57:25.720Z,38.00
2023-04-10T04:58:25.719Z,39.50
2023-04-10T04:59:25.700Z,32.80
2023-04-10T05:00:25.707Z,44.50
2023-04-10T05:01:25.776Z,37.40
2023-04-10T05:02:25.743Z,39.00
2023-04-10T05:03:25.741Z,37.70
2023-04-10T05:04:25.702Z,36.10
2023-04-10T05:05:25.628Z,34.80
2023-04-10T05:06:25.661Z,47.20
2023-04-10T05:07:25.602Z,35.10
2023-04-10T05:08:25.598Z,37.90
2023-04-10T05:09:25.573Z,40.20
2023-04-10T05:10:25.567Z,33.00
2023-04-10T05:11:25.564Z,34.30
2023-04-10T05:12:25.545Z,37.50
2023-04-10T05:13:25.534Z,40.80
2023-04-10T05:14:25.534Z,34.60
2023-04-10T05:15:25.595Z,36.20
2023-04-10T05:16:25.513Z,38.00
2023-04-10T05:17:25.516Z,40.50
2023-04-10T05:18:25.532Z,40.20
2023-04-10T05:19:25.476Z,35.30
2023-04-10T05:20:25.481Z,33.50
2023-04-10T05:21:25.447Z,33.30
2023-04-10T05:22:25.455Z,42.60
2023-04-10T05:23:25.418Z,33.80
2023-04-10T05:24:25.424Z,36.80
2023-04-10T05:25:25.417Z,48.10
2023-04-10T05:26:25.427Z,34.60
2023-04-10T05:27:25.426Z,44.20
2023-04-10T05:28:25.411Z,30.90
2023-04-10T05:29:25.398Z,32.20
2023-04-10T05:30:25.387Z,33.80
2023-04-10T05:31:25.376Z,33.30
2023-04-10T05:32:25.406Z,38.00
2023-04-10T05:33:25.321Z,28.20
2023-04-10T05:34:32.468Z,34.40
2023-04-10T05:35:25.300Z,35.90
2023-04-10T05:36:26.833Z,35.80
2023-04-10T05:37:25.280Z,36.40
2023-04-10T05:38:25.272Z,39.30
2023-04-10T05:39:25.297Z,33.00
2023-04-10T05:40:25.290Z,33.70
2023-04-10T05:41:25.242Z,36.40
2023-04-10T05:42:25.237Z,39.30
2023-04-10T05:43:25.227Z,37.10
2023-04-10T05:44:25.222Z,33.20
2023-04-10T05:45:25.195Z,30.00
2023-04-10T05:46:25.243Z,26.00
2023-04-10T05:47:25.260Z,40.50
2023-04-10T05:48:25.183Z,30.40
2023-04-10T05:49:25.152Z,26.10
2023-04-10T05:50:25.192Z,28.80
2023-04-10T05:51:25.154Z,27.10
2023-04-10T05:52:25.164Z,35.20
2023-04-10T05:53:25.134Z,42.20
2023-04-10T05:54:25.119Z,34.70
2023-04-10T05:55:25.102Z,28.20
2023-04-10T05:56:25.118Z,30.10
2023-04-10T05:57:25.086Z,33.90
2023-04-10T05:58:25.087Z,34.40
2023-04-10T05:59:25.057Z,35.10
2023-04-10T06:00:25.059Z,30.70
2023-04-10T06:01:25.028Z,24.90
2023-04-10T06:02:25.163Z,34.30
2023-04-10T06:03:25.294Z,32.60
2023-04-10T06:04:25.181Z,33.30
2023-04-10T06:05:25.145Z,27.90
2023-04-10T06:06:25.009Z,32.80
2023-04-10T06:07:25.014Z,28.40
2023-04-10T06:08:24.972Z,29.70
2023-04-10T06:09:24.947Z,37.00
2023-04-10T06:10:24.979Z,33.40
2023-04-10T06:11:24.949Z,31.10
2023-04-10T06:12:24.929Z,34.70
2023-04-10T06:13:24.914Z,28.00
2023-04-10T06:14:24.914Z,30.40
2023-04-10T06:15:24.898Z,27.50
2023-04-10T06:16:24.941Z,32.50
2023-04-10T06:17:24.913Z,31.50
2023-04-10T06:18:24.887Z,30.40
2023-04-10T06:19:24.879Z,32.50
2023-04-10T06:20:24.854Z,26.10
2023-04-10T06:21:24.827Z,34.60
2023-04-10T06:22:24.863Z,22.50
2023-04-10T06:23:24.812Z,35.50
2023-04-10T06:24:24.844Z,32.60
2023-04-10T06:25:24.856Z,28.80
2023-04-10T06:26:24.777Z,30.10
2023-04-10T06:27:24.756Z,25.20
2023-04-10T06:28:24.785Z,35.30
2023-04-10T06:29:24.774Z,29.30
2023-04-10T06:30:24.748Z,23.60
2023-04-10T06:31:24.784Z,30.10
2023-04-10T06:32:24.723Z,26.50
2023-04-10T06:33:26.308Z,25.00
2023-04-10T06:34:24.830Z,27.30
2023-04-10T06:35:24.730Z,29.10
2023-04-10T06:36:24.688Z,23.80
2023-04-10T06:37:24.664Z,24.30
2023-04-10T06:38:24.707Z,35.40
2023-04-10T06:39:24.638Z,29.70
2023-04-10T06:40:24.655Z,27.80
2023-04-10T06:41:24.680Z,26.40
2023-04-10T06:42:24.613Z,26.10
2023-04-10T06:43:24.591Z,32.80
2023-04-10T06:44:24.650Z,25.90
2023-04-10T06:45:24.579Z,24.50
2023-04-10T06:46:24.649Z,25.50
2023-04-10T06:47:24.601Z,22.40
2023-04-10T06:48:31.101Z,23.40
2023-04-10T06:49:25.387Z,25.00
2023-04-10T06:50:24.516Z,26.70
2023-04-10T06:51:25.106Z,25.70
2023-04-10T06:52:24.514Z,27.00
2023-04-10T06:53:24.480Z,25.40
2023-04-10T06:54:24.487Z,25.90
2023-04-10T06:55:24.481Z,17.70
2023-04-10T06:56:24.462Z,23.60
2023-04-10T06:57:24.462Z,26.00
2023-04-10T06:58:24.461Z,18.40
2023-04-10T06:59:24.435Z,21.40
2023-04-10T07:00:24.429Z,23.60
2023-04-10T07:01:25.279Z,18.10
2023-04-10T07:02:24.658Z,21.70
2023-04-10T07:03:24.430Z,18.90
2023-04-10T07:04:24.402Z,21.50
2023-04-10T07:05:24.372Z,19.00
2023-04-10T07:06:24.367Z,21.90
2023-04-10T07:07:24.350Z,18.70
2023-04-10T07:08:24.342Z,22.60
2023-04-10T07:09:24.381Z,18.60
2023-04-10T07:10:24.322Z,18.80
2023-04-10T07:11:24.295Z,17.70
2023-04-10T07:12:24.319Z,15.70
2023-04-10T07:13:24.285Z,17.10
2023-04-10T07:14:24.304Z,11.00
2023-04-10T07:15:24.254Z,14.50
2023-04-10T07:16:24.309Z,14.50
2023-04-10T07:17:24.331Z,14.20
2023-04-10T07:18:24.244Z,16.20
2023-04-10T07:19:24.236Z,14.20
2023-04-10T07:20:24.271Z,14.90
2023-04-10T07:21:24.238Z,13.90
2023-04-10T07:22:24.185Z,13.80
2023-04-10T07:23:24.168Z,14.10
2023-04-10T07:24:24.169Z,17.70
2023-04-10T07:25:24.173Z,15.40
2023-04-10T07:26:24.195Z,15.70
2023-04-10T07:27:24.124Z,15.60
2023-04-10T07:28:24.345Z,15.50
2023-04-10T07:29:24.121Z,15.00
2023-04-10T07:30:24.122Z,15.00
2023-04-10T07:31:24.715Z,16.30
2023-04-10T07:32:24.275Z,11.40
2023-04-10T07:33:24.105Z,17.00
2023-04-10T07:34:24.079Z,16.50
2023-04-10T07:35:24.088Z,15.80
2023-04-10T07:36:24.073Z,11.50
2023-04-10T07:37:24.042Z,14.80
2023-04-10T07:38:24.029Z,14.00
2023-04-10T07:39:24.060Z,15.80
2023-04-10T07:40:23.989Z,16.10
2023-04-10T07:41:24.021Z,12.50
2023-04-10T07:42:24.017Z,15.60
2023-04-10T07:43:24.002Z,12.20
2023-04-10T07:44:23.944Z,12.60
2023-04-10T07:45:23.958Z,15.30
2023-04-10T07:46:24.707Z,12.90
2023-04-10T07:47:23.969Z,15.10
2023-04-10T07:48:23.934Z,12.60
2023-04-10T07:49:23.940Z,13.30
2023-04-10T07:50:23.950Z,17.90
2023-04-10T07:51:23.913Z,11.50
2023-04-10T07:52:23.890Z,14.70
2023-04-10T07:53:23.863Z,15.20
2023-04-10T07:54:23.882Z,16.50
2023-04-10T07:55:23.852Z,12.50
2023-04-10T07:56:23.874Z,11.50
2023-04-10T07:57:23.885Z,12.90
2023-04-10T07:58:23.810Z,13.20
2023-04-10T07:59:23.804Z,13.20
2023-04-10T08:00:23.773Z,13.60
2023-04-10T08:01:30.299Z,14.30
2023-04-10T08:02:24.001Z,12.70
2023-04-10T08:04:23.821Z,10.60
2023-04-10T08:05:23.921Z,11.00
2023-04-10T08:06:23.812Z,8.10
2023-04-10T08:07:23.709Z,12.20
2023-04-10T08:08:23.710Z,11.10
2023-04-10T08:09:23.726Z,14.40
2023-04-10T08:10:23.669Z,11.30
2023-04-10T08:11:23.670Z,11.30
2023-04-10T08:12:23.645Z,6.20
2023-04-10T08:13:23.654Z,10.80
2023-04-10T08:14:23.621Z,11.40
2023-04-10T08:15:23.677Z,11.20
2023-04-10T08:16:23.652Z,13.60
2023-04-10T08:17:23.677Z,11.60
2023-04-10T08:18:23.730Z,12.30
2023-04-10T08:19:23.625Z,7.80
2023-04-10T08:20:23.640Z,11.30
2023-04-10T08:21:23.658Z,9.80
2023-04-10T08:22:23.558Z,9.40
2023-04-10T08:23:23.536Z,10.30
2023-04-10T08:24:23.646Z,11.50
2023-04-10T08:25:23.601Z,9.90
2023-04-10T08:26:23.531Z,10.60
2023-04-10T08:27:23.597Z,7.10
2023-04-10T08:28:23.508Z,10.10
2023-04-10T08:30:23.533Z,11.30
2023-04-10T08:31:23.668Z,14.00
2023-04-10T08:32:23.461Z,9.40
2023-04-10T08:33:23.442Z,10.40
2023-04-10T08:34:23.419Z,11.10
2023-04-10T08:35:23.411Z,12.10
2023-04-10T08:36:23.410Z,11.40
2023-04-10T08:37:23.419Z,6.40
2023-04-10T08:38:23.403Z,8.50
2023-04-10T08:39:23.375Z,9.20
2023-04-10T08:40:23.406Z,8.10
2023-04-10T08:41:23.368Z,7.90
2023-04-10T08:42:23.334Z,10.60
2023-04-10T08:43:23.326Z,7.30
2023-04-10T08:44:23.343Z,13.70
2023-04-10T08:45:23.335Z,7.40
2023-04-10T08:46:23.359Z,7.80
2023-04-10T08:47:23.311Z,9.90
2023-04-10T08:48:23.275Z,7.40
2023-04-10T08:49:23.267Z,5.90
2023-04-10T08:50:23.244Z,7.50
2023-04-10T08:51:26.047Z,7.80
2023-04-10T08:52:23.264Z,7.40
2023-04-10T08:53:23.223Z,8.80
2023-04-10T08:54:23.232Z,8.20
2023-04-10T08:55:23.216Z,10.20
2023-04-10T08:56:23.296Z,7.20
2023-04-10T08:57:23.195Z,6.40
2023-04-10T08:58:23.157Z,9.80
2023-04-10T08:59:23.254Z,5.10
2023-04-10T09:00:23.732Z,6.60
2023-04-10T09:01:23.159Z,5.10
2023-04-10T09:02:24.357Z,6.80
2023-04-10T09:03:23.301Z,5.90
2023-04-10T09:04:23.168Z,6.60
2023-04-10T09:05:23.098Z,8.60
2023-04-10T09:06:23.108Z,6.20
2023-04-10T09:07:23.077Z,6.20
2023-04-10T09:08:23.098Z,4.90
2023-04-10T09:09:23.057Z,5.30
2023-04-10T09:10:23.035Z,6.90
2023-04-10T09:11:23.062Z,5.90
2023-04-10T09:12:23.025Z,6.40
2023-04-10T09:13:23.026Z,8.20
2023-04-10T09:14:22.992Z,6.90
2023-04-10T09:15:23.019Z,6.30
2023-04-10T09:16:23.048Z,7.80
2023-04-10T09:17:23.044Z,5.00
2023-04-10T09:18:22.957Z,6.60
2023-04-10T09:19:22.946Z,4.70
2023-04-10T09:20:22.947Z,6.60
2023-04-10T09:21:22.929Z,8.70
2023-04-10T09:22:22.919Z,6.30
2023-04-10T09:23:22.907Z,5.20
2023-04-10T09:24:22.904Z,5.10
2023-04-10T09:25:22.881Z,5.10
2023-04-10T09:26:22.876Z,5.40
2023-04-10T09:27:22.878Z,5.70
2023-04-10T09:28:22.846Z,9.20
2023-04-10T09:29:22.964Z,3.90
2023-04-10T09:30:22.813Z,3.70
2023-04-10T09:31:22.922Z,5.10
2023-04-10T09:32:22.841Z,6.90
2023-04-10T09:33:22.840Z,4.40
2023-04-10T09:34:22.838Z,4.50
2023-04-10T09:35:22.796Z,3.10
2023-04-10T09:36:22.808Z,4.70
2023-04-10T09:37:22.771Z,2.70
2023-04-10T09:38:22.733Z,2.90
2023-04-10T09:39:22.746Z,3.40
2023-04-10T09:40:22.727Z,3.10
2023-04-10T09:41:22.733Z,2.30
2023-04-10T09:42:22.723Z,4.80
2023-04-10T09:43:22.727Z,4.60
2023-04-10T09:44:23.634Z,4.90
2023-04-10T09:45:22.773Z,3.50
2023-04-10T09:46:22.707Z,3.00
2023-04-10T09:47:22.668Z,2.50
2023-04-10T09:48:22.638Z,3.60
2023-04-10T09:49:22.719Z,3.60
2023-04-10T09:50:22.608Z,2.60
2023-04-10T09:51:22.598Z,4.20
2023-04-10T09:52:22.633Z,2.60
2023-04-10T09:53:22.596Z,3.50
2023-04-10T09:54:22.591Z,2.50
2023-04-10T09:55:22.567Z,2.90
2023-04-10T09:56:22.601Z,2.60
2023-04-10T09:57:22.583Z,2.40
2023-04-10T09:58:22.523Z,4.40
2023-04-10T09:59:22.561Z,3.10
2023-04-10T10:00:22.517Z,3.10
2023-04-10T10:01:22.525Z,2.80
2023-04-10T10:02:22.739Z,4.00
2023-04-10T10:03:22.646Z,3.20
2023-04-10T10:04:22.482Z,3.20
2023-04-10T10:05:22.485Z,3.40
2023-04-10T10:06:22.439Z,2.30
2023-04-10T10:07:22.451Z,3.70
2023-04-10T10:08:22.488Z,2.80
2023-04-10T10:09:22.436Z,3.20
2023-04-10T10:10:22.414Z,2.60
2023-04-10T10:11:22.407Z,2.40
2023-04-10T10:12:22.384Z,2.80
2023-04-10T10:13:22.415Z,4.10
2023-04-10T10:14:22.370Z,3.00
2023-04-10T10:15:22.363Z,3.10
2023-04-10T10:16:22.355Z,2.70
2023-04-10T10:17:22.405Z,3.00
2023-04-10T10:18:22.319Z,8.10
2023-04-10T10:19:22.353Z,102.70
2023-04-10T10:20:22.328Z,92.60
2023-04-10T10:21:22.343Z,4.50
2023-04-10T10:22:22.272Z,3.80
2023-04-10T10:23:22.276Z,2.10
2023-04-10T10:24:22.289Z,3.20
2023-04-10T10:25:22.281Z,2.70
2023-04-10T10:26:22.251Z,2.70
2023-04-10T10:27:22.244Z,2.10
2023-04-10T10:28:22.238Z,3.80
2023-04-10T10:29:28.738Z,2.30
2023-04-10T10:30:30.056Z,2.80
2023-04-10T10:31:22.424Z,4.50
2023-04-10T10:32:22.182Z,2.40
2023-04-10T10:33:22.181Z,2.00
2023-04-10T10:34:22.161Z,2.40
2023-04-10T10:35:23.023Z,4.20
2023-04-10T10:36:22.160Z,2.80
2023-04-10T10:37:22.126Z,3.70
2023-04-10T10:38:22.185Z,2.90
2023-04-10T10:39:22.131Z,1.90
2023-04-10T10:40:22.102Z,3.20
2023-04-10T10:41:22.093Z,1.60
2023-04-10T10:42:22.073Z,2.70
2023-04-10T10:43:22.086Z,1.50
2023-04-10T10:44:22.075Z,2.20
2023-04-10T10:45:22.086Z,4.40
2023-04-10T10:46:22.075Z,2.40
2023-04-10T10:47:22.105Z,1.40
2023-04-10T10:48:22.015Z,4.30
2023-04-10T10:49:22.005Z,2.40
2023-04-10T10:50:23.474Z,2.70
2023-04-10T10:51:22.033Z,3.70
2023-04-10T10:52:21.969Z,4.10
2023-04-10T10:53:21.961Z,2.30
2023-04-10T10:54:21.957Z,2.20
2023-04-10T10:55:22.015Z,2.40
2023-04-10T10:56:22.665Z,4.00
2023-04-10T10:57:21.925Z,2.60
2023-04-10T10:58:22.099Z,2.10
2023-04-10T10:59:21.901Z,2.00
2023-04-10T11:00:21.905Z,2.30
2023-04-10T11:01:21.947Z,1.70
2023-04-10T11:02:22.014Z,2.80
2023-04-10T11:03:22.132Z,3.40
2023-04-10T11:04:21.856Z,2.10
2023-04-10T11:05:21.828Z,2.00
2023-04-10T11:06:21.824Z,3.20
2023-04-10T11:07:21.812Z,1.90
2023-04-10T11:08:21.809Z,3.00
2023-04-10T11:09:21.822Z,1.40
2023-04-10T11:10:21.799Z,1.40
2023-04-10T11:11:21.795Z,2.40
2023-04-10T11:12:21.802Z,3.40
2023-04-10T11:13:21.759Z,1.80
2023-04-10T11:14:21.714Z,1.50
2023-04-10T11:15:21.724Z,2.90
2023-04-10T11:16:21.784Z,2.80
2023-04-10T11:17:21.749Z,3.00
2023-04-10T11:18:21.677Z,1.40
2023-04-10T11:19:23.271Z,3.50
2023-04-10T11:20:21.669Z,2.50
2023-04-10T11:21:21.650Z,5.20
2023-04-10T11:22:21.713Z,4.00
2023-04-10T11:23:21.653Z,1.80
2023-04-10T11:24:21.679Z,3.10
2023-04-10T11:25:21.671Z,1.30
2023-04-10T11:26:21.604Z,2.50
2023-04-10T11:27:21.611Z,3.40
2023-04-10T11:28:21.602Z,3.50
2023-04-10T11:29:21.572Z,1.20
2023-04-10T11:30:21.558Z,2.00
2023-04-10T11:31:21.581Z,2.40
2023-04-10T11:32:21.553Z,1.70
2023-04-10T11:33:21.528Z,2.40
2023-04-10T11:34:21.538Z,1.90
2023-04-10T11:35:21.522Z,1.90
2023-04-10T11:36:21.489Z,1.30
2023-04-10T11:37:21.483Z,1.40
2023-04-10T11:38:21.469Z,2.30
2023-04-10T11:39:21.543Z,3.10
2023-04-10T11:40:21.438Z,2.50
2023-04-10T11:41:21.454Z,2.60
2023-04-10T11:42:21.451Z,1.60
2023-04-10T11:43:27.997Z,2.60
2023-04-10T11:44:22.893Z,2.60
2023-04-10T11:45:21.428Z,2.50
2023-04-10T11:46:22.060Z,3.00
2023-04-10T11:47:21.371Z,1.20
2023-04-10T11:48:21.361Z,2.20
2023-04-10T11:49:21.387Z,1.40
2023-04-10T11:50:21.373Z,2.20
2023-04-10T11:51:21.325Z,1.60
2023-04-10T11:52:21.323Z,2.10
2023-04-10T11:53:21.317Z,1.60
2023-04-10T11:54:21.331Z,3.70
2023-04-10T11:55:21.306Z,1.90
2023-04-10T11:56:21.325Z,1.80
2023-04-10T11:57:21.275Z,2.40
2023-04-10T11:58:21.304Z,3.20
2023-04-10T11:59:21.254Z,2.40
2023-04-10T12:00:21.242Z,2.10
2023-04-10T12:01:21.233Z,2.50
2023-04-10T12:02:21.314Z,2.10
2023-04-10T12:03:21.321Z,2.40
2023-04-10T12:04:21.398Z,2.90
2023-04-10T12:05:21.176Z,2.90
2023-04-10T12:06:21.167Z,1.50
2023-04-10T12:07:21.175Z,2.70
2023-04-10T12:08:21.180Z,1.50
2023-04-10T12:09:21.141Z,1.60
2023-04-10T12:10:21.171Z,2.60
2023-04-10T12:11:21.150Z,2.20
2023-04-10T12:12:21.130Z,1.80
2023-04-10T12:13:21.107Z,1.90
2023-04-10T12:14:21.115Z,1.30
2023-04-10T12:15:21.058Z,3.40
2023-04-10T12:16:21.336Z,1.80
2023-04-10T12:17:21.076Z,1.10
2023-04-10T12:18:21.047Z,2.30
2023-04-10T12:19:21.051Z,1.80
2023-04-10T12:20:21.061Z,2.50
2023-04-10T12:21:21.027Z,2.40
2023-04-10T12:22:20.998Z,3.10
2023-04-10T12:23:20.988Z,2.40
2023-04-10T12:24:20.995Z,2.60
2023-04-10T12:25:20.986Z,2.50
2023-04-10T12:26:20.968Z,2.30
2023-04-10T12:27:20.946Z,2.30
2023-04-10T12:28:20.954Z,2.60
2023-04-10T12:29:20.927Z,3.20
2023-04-10T12:30:20.928Z,1.00
2023-04-10T12:31:20.948Z,1.70
2023-04-10T12:32:20.962Z,1.70
2023-04-10T12:33:20.869Z,1.90
2023-04-10T12:34:20.878Z,1.70
2023-04-10T12:35:20.870Z,2.50
2023-04-10T12:36:20.870Z,1.90
2023-04-10T12:37:20.910Z,1.90
2023-04-10T12:38:20.838Z,1.50
2023-04-10T12:39:20.823Z,1.50
2023-04-10T12:40:20.898Z,2.50
2023-04-10T12:41:20.806Z,2.30
2023-04-10T12:42:20.957Z,2.00
2023-04-10T12:43:20.793Z,2.20
2023-04-10T12:44:20.763Z,1.60
2023-04-10T12:45:20.769Z,1.00
2023-04-10T12:46:20.815Z,2.20
2023-04-10T12:47:20.733Z,2.20
2023-04-10T12:48:20.729Z,2.70
2023-04-10T12:49:20.729Z,2.60
2023-04-10T12:50:20.742Z,2.60
2023-04-10T12:51:20.699Z,2.70
2023-04-10T12:52:20.724Z,1.90
2023-04-10T12:53:20.675Z,2.10
2023-04-10T12:54:20.673Z,1.00
2023-04-10T12:55:20.661Z,3.20
2023-04-10T12:56:20.645Z,2.00
2023-04-10T12:57:19.620Z,9.10
2023-04-10T12:58:20.654Z,3.40
2023-04-10T12:59:20.830Z,1.30
2023-04-10T13:00:20.612Z,2.10
2023-04-10T13:01:20.615Z,3.00
2023-04-10T13:02:20.664Z,2.10
2023-04-10T13:03:20.800Z,2.00